Weather reports worldwide

Advertisment
Le Puy, France (7471): temperature & dewpoint: 25.09.2020 00:00:00 - 01.10.2020 00:00:00 (CEST)Le Puy, France (7471): temperature 5cm: 25.09.2020 00:00:00 - 01.10.2020 00:00:00 (CEST)Le Puy, France (7471): temperature -20cm & temperature -100cm: 25.09.2020 00:00:00 - 01.10.2020 00:00:00 (CEST)Le Puy, France (7471): wind speed & gusts: 25.09.2020 00:00:00 - 01.10.2020 00:00:00 (CEST)Le Puy, France (7471): wind direction: 25.09.2020 00:00:00 - 01.10.2020 00:00:00 (CEST)Le Puy, France (7471): visibility: 25.09.2020 00:00:00 - 01.10.2020 00:00:00 (CEST)Le Puy, France (7471): sunshine duration: 25.09.2020 00:00:00 - 01.10.2020 00:00:00 (CEST)Le Puy, France (7471): precipitation: 25.09.2020 00:00:00 - 01.10.2020 00:00:00 (CEST)
Date & Time tt [°C] td [°C] tt 5cm [°C] tt -20cm [°C] tt -100cm [°C] ff [km/h] ff [kn] fx [km/h] fx [kn] dd vv [km] sd [min] rr [mm]
01.10.2020 00:00:00 8,0 4,9 6,0 13,4 15,6 7 4 12 6 WSW 20 0 0,0
30.09.2020 23:00:00 8,3 5,6 5,6 13,3 15,6 3 2 9 5 S 20 0 0,0
30.09.2020 22:00:00 10,4 6,0 7,9 13,2 15,6 5 3 14 8 W 20 0 0,0
30.09.2020 21:00:00 12,4 6,0 11,5 13,1 15,6 10 5 20 11 W 20 0 0,0
30.09.2020 20:00:00 13,6 6,5 10,7 12,9 15,6 8 4 15 8 WSW 20 0 0,0
30.09.2020 19:00:00 17,3 6,2 15,8 12,7 15,6 8 5 19 11 WNW 20 44 0,0
30.09.2020 18:00:00 19,7 5,3 22,1 12,5 15,6 11 6 23 12 W 20 60 0,0
30.09.2020 17:00:00 20,4 6,0 24,6 12,4 15,6 9 5 20 11 W 20 60 0,0
30.09.2020 16:00:00 - - - - - - - - - - - - -
30.09.2020 15:00:00 18,2 7,6 23,6 12,1 15,6 8 4 16 9 E 20 60 0,0
30.09.2020 14:00:00 16,2 7,9 20,8 12,0 15,6 6 3 12 7 E 20 60 0,0
30.09.2020 13:00:00 11,6 9,0 15,0 12,0 15,6 4 2 9 5 N 20 58 0,0
30.09.2020 12:00:00 7,9 7,8 9,8 12,1 15,6 3 2 9 5 N 0,9 0 0,0
30.09.2020 11:00:00 6,0 6,0 7,1 12,2 15,7 3 1 8 5 WNW 0,2 0 0,0
30.09.2020 10:00:00 4,4 4,4 5,1 12,3 15,7 2 1 7 4 N 0,2 0 0,0
30.09.2020 09:00:00 3,5 3,4 3,8 12,3 15,7 3 2 6 3 NNW 0,2 0 0,0
30.09.2020 08:00:00 3,2 3,1 3,4 12,4 15,7 2 1 7 4 N 0,2 0 0,0
30.09.2020 07:00:00 4,2 3,9 3,5 12,5 15,7 2 1 7 4 WNW 0,2 0 0,0
30.09.2020 06:00:00 3,6 3,5 0,2 12,6 15,7 5 3 6 3 SW 0,6 0 0,0
30.09.2020 05:00:00 - - - - - - - - - - - - -
30.09.2020 04:00:00 4,5 4,1 2,8 12,7 15,7 4 2 8 4 WSW 14 0 0,0
30.09.2020 03:00:00 4,4 3,7 1,8 12,8 15,7 3 2 6 3 W 15 0 0,0
30.09.2020 02:00:00 5,5 4,8 4,0 12,9 15,7 2 1 4 2 WSW 20 0 0,0
30.09.2020 01:00:00 5,4 4,5 4,2 12,9 15,7 2 1 7 4 NW 20 0 0,0
30.09.2020 00:00:00 5,9 4,9 4,7 12,9 15,8 4 2 9 5 WSW 20 0 0,0
29.09.2020 23:00:00 6,3 5,1 5,2 12,8 15,8 6 3 11 6 SW 20 0 0,0
29.09.2020 22:00:00 6,8 5,4 5,3 12,8 15,8 6 4 11 6 SW 20 0 0,0
29.09.2020 21:00:00 8,0 6,1 5,8 12,7 15,8 3 2 8 4 N 20 0 0,0
29.09.2020 20:00:00 10,0 6,5 7,3 12,5 15,8 4 2 13 7 NNE 20 5 0,0
29.09.2020 19:00:00 12,5 7,4 12,0 12,3 15,8 8 5 15 8 E 20 36 0,0
29.09.2020 18:00:00 14,1 7,4 16,1 12,1 15,8 7 4 14 8 NNE 17 38 0,0
29.09.2020 17:00:00 14,3 7,6 17,6 11,9 15,8 5 3 16 8 NE 20 34 0,0
29.09.2020 16:00:00 14,4 7,2 18,1 11,7 15,8 9 5 20 11 ENE 20 45 0,0
29.09.2020 15:00:00 14,0 7,3 17,2 11,6 15,8 5 3 19 10 E 20 12 0,0
29.09.2020 14:00:00 13,9 6,7 19,1 11,5 15,8 5 3 17 9 NE 20 50 0,0
29.09.2020 13:00:00 12,8 7,0 17,5 11,5 15,8 8 4 17 9 SE 20 60 0,0
29.09.2020 12:00:00 11,9 6,6 17,6 11,5 15,8 6 3 15 8 NE 20 60 0,0
29.09.2020 11:00:00 10,0 6,3 13,5 11,6 15,9 7 4 13 7 NE 20 54 0,0
29.09.2020 10:00:00 7,0 5,9 8,8 11,7 15,8 2 1 9 5 N 20 60 0,0
29.09.2020 09:00:00 3,9 3,5 0,9 11,8 15,9 2 1 8 4 NNE 20 45 0,0
29.09.2020 08:00:00 1,7 1,0 0,2 11,9 15,9 3 2 6 3 S 13 0 0,0
29.09.2020 07:00:00 2,5 1,9 0,3 11,9 15,9 5 3 21 11 W 20 0 0,0
29.09.2020 06:00:00 3,0 2,3 1,1 12,0 15,9 3 2 11 6 S 20 0 0,0
29.09.2020 05:00:00 3,8 3,1 1,8 12,1 15,9 8 4 11 6 SW 20 0 0,0
29.09.2020 04:00:00 3,8 3,2 1,4 12,1 15,9 4 2 7 4 W 20 0 0,0
29.09.2020 03:00:00 3,8 3,2 1,8 12,2 15,9 2 1 9 5 SE 14 0 0,0
29.09.2020 02:00:00 5,4 4,7 3,3 12,2 15,9 4 2 8 4 SW 20 0 0,0
29.09.2020 01:00:00 5,9 5,0 4,0 12,2 15,9 4 2 8 4 SE 15 0 0,0
29.09.2020 00:00:00 6,6 5,9 5,3 12,2 15,9 2 1 8 4 SE 20 0 0,0
28.09.2020 23:00:00 6,9 5,5 5,0 12,2 16,0 3 1 8 5 N 20 0 0,0
28.09.2020 22:00:00 7,7 5,3 7,1 12,2 15,9 0 0 9 5 N 20 0 0,0
28.09.2020 21:00:00 7,9 5,4 8,0 12,1 16,0 6 3 10 5 ESE 20 0 0,0
28.09.2020 20:00:00 8,0 4,4 8,2 12,0 15,9 4 2 18 10 WNW 20 0 0,0
28.09.2020 19:00:00 8,1 5,0 8,5 12,0 15,9 9 5 29 16 W 20 0 0,0
28.09.2020 18:00:00 8,5 7,1 8,6 11,9 15,9 16 8 37 20 WNW 7 0 0,0
28.09.2020 17:00:00 9,4 7,7 10,2 11,9 16,0 24 13 38 20 NW 18 0 0,0
28.09.2020 16:00:00 9,5 7,6 9,7 11,9 16,0 14 8 31 17 WNW 16 0 0,0
28.09.2020 15:00:00 9,5 7,9 9,7 11,9 16,0 21 11 36 19 NW 10 0 0,0
28.09.2020 14:00:00 9,0 7,1 9,2 11,9 16,0 16 9 33 18 NW 18 0 0,0
28.09.2020 13:00:00 - - - - - - - - - - - - -
28.09.2020 12:00:00 - - - - - - - - - - - - -
28.09.2020 11:00:00 7,8 6,4 7,4 11,9 16,0 12 7 23 13 WNW 20 0 0,0
28.09.2020 10:00:00 7,3 6,1 6,8 11,9 16,0 11 6 21 11 WNW 12 0 0,0
28.09.2020 09:00:00 6,9 5,7 6,6 12,0 16,0 8 4 24 13 W 18 0 0,2
28.09.2020 08:00:00 6,8 5,6 6,5 12,0 16,0 10 5 32 17 WNW 14 0 0,2
28.09.2020 07:00:00 6,9 5,4 6,5 12,0 16,0 14 8 30 16 WNW 20 0 0,0
28.09.2020 06:00:00 6,9 5,5 6,5 12,1 16,1 13 7 24 13 NW 20 0 0,0
28.09.2020 05:00:00 6,8 5,4 6,4 12,1 16,0 13 7 29 16 WNW 13 0 0,2
28.09.2020 04:00:00 6,7 5,3 6,3 12,2 16,1 15 8 30 16 WNW 13 0 0,0
28.09.2020 03:00:00 6,6 5,1 6,2 12,2 16,1 12 6 28 15 WNW 20 0 0,0
28.09.2020 02:00:00 6,4 4,9 5,8 12,3 16,1 9 5 29 15 NW 20 0 0,0
28.09.2020 01:00:00 6,2 4,8 5,7 12,3 16,1 12 7 35 19 W 20 0 0,0
28.09.2020 00:00:00 6,2 4,7 5,7 12,4 16,1 16 9 32 18 WNW 20 0 0,0
27.09.2020 23:00:00 6,0 4,5 5,6 12,3 16,1 13 7 28 15 W 17 0 0,0
27.09.2020 22:00:00 6,0 4,2 5,4 12,4 16,1 11 6 33 18 W 20 0 0,0
27.09.2020 21:00:00 5,8 3,8 4,9 12,4 16,1 17 9 36 19 WNW 20 0 0,2
27.09.2020 20:00:00 5,5 3,5 4,9 12,4 16,0 15 8 31 17 WNW 9 0 0,2
27.09.2020 19:00:00 5,4 3,4 4,8 12,4 16,1 15 8 34 19 WNW 16 0 0,6
27.09.2020 18:00:00 5,4 3,2 4,9 12,4 16,1 17 9 39 21 WNW 13 0 0,4
27.09.2020 17:00:00 5,9 3,6 5,7 12,4 16,1 19 11 41 22 WNW 18 0 0,2
27.09.2020 16:00:00 6,3 3,5 6,6 12,4 16,1 21 12 44 24 WNW 18 4 0,0
27.09.2020 15:00:00 6,3 3,5 5,7 12,4 16,1 18 10 43 23 WNW 20 0 0,0
27.09.2020 14:00:00 6,0 3,2 6,0 12,4 16,1 12 6 43 23 W 20 0 0,0
27.09.2020 13:00:00 5,6 3,1 5,7 12,5 16,1 16 9 32 18 WNW 20 0 0,0
27.09.2020 12:00:00 5,7 3,5 5,6 12,5 16,1 19 11 44 24 WNW 20 0 0,0
27.09.2020 11:00:00 5,4 3,2 5,7 12,6 16,1 19 10 44 24 WNW 20 11 0,0
27.09.2020 10:00:00 4,9 2,8 4,3 12,7 16,1 19 10 36 20 WNW 19 6 0,2
27.09.2020 09:00:00 4,5 2,5 3,7 12,8 16,1 17 9 34 18 WNW 18 0 0,0
27.09.2020 08:00:00 3,9 2,1 3,1 12,9 16,1 10 5 26 14 WNW 20 0 0,0
27.09.2020 07:00:00 3,8 0,5 3,5 13,0 16,1 13 7 23 12 WNW 20 0 0,0
27.09.2020 06:00:00 3,7 0,9 2,9 13,2 16,1 11 6 28 15 WNW 20 0 0,0
27.09.2020 05:00:00 3,3 1,2 1,4 13,3 16,1 18 10 34 18 NW 20 0 0,0
27.09.2020 04:00:00 3,0 0,9 1,3 13,4 16,2 11 6 28 15 NW 20 0 0,0
27.09.2020 03:00:00 2,4 0,8 1,1 13,5 16,1 8 5 16 9 NW 20 0 0,0
27.09.2020 02:00:00 3,6 1,0 2,8 13,6 16,2 11 6 24 13 WNW 20 0 0,0
27.09.2020 01:00:00 3,8 1,3 2,8 13,7 16,2 16 9 24 13 NW 20 0 0,0
27.09.2020 00:00:00 3,3 1,3 1,8 13,7 16,1 11 6 18 10 NW 20 0 0,0
26.09.2020 23:00:00 3,0 1,0 1,2 13,8 16,2 5 3 14 8 NNW 20 0 0,0
26.09.2020 22:00:00 4,0 1,5 2,8 13,8 16,1 10 5 19 10 WNW 20 0 0,0
26.09.2020 21:00:00 4,0 2,2 2,2 13,8 16,2 4 2 26 14 E 20 0 0,0
26.09.2020 20:00:00 5,7 2,5 5,9 13,7 16,2 16 9 29 16 N 20 0 0,0
26.09.2020 19:00:00 6,9 2,4 6,9 13,7 16,2 12 7 23 13 NNW 20 38 0,0
26.09.2020 18:00:00 6,7 2,9 5,8 13,6 16,2 10 6 43 23 NW 20 30 0,2
26.09.2020 17:00:00 8,6 3,2 8,3 13,5 16,2 21 12 36 20 WNW 20 42 0,0
26.09.2020 16:00:00 8,2 3,8 7,5 13,5 16,2 24 13 41 22 NW 20 38 0,0
26.09.2020 15:00:00 7,9 5,0 5,6 13,5 16,2 23 13 41 22 NW 20 22 0,8
26.09.2020 14:00:00 6,7 3,1 8,0 13,5 16,2 27 15 46 25 NW 19 38 0,0
26.09.2020 13:00:00 7,2 3,8 6,4 13,6 16,2 26 14 39 21 NW 20 24 0,0
26.09.2020 12:00:00 5,0 3,0 5,5 13,7 16,2 17 9 33 18 NW 18 0 0,2
26.09.2020 11:00:00 5,8 2,4 6,2 13,7 16,2 13 7 30 16 W 20 3 0,0
26.09.2020 10:00:00 6,0 1,5 5,8 13,9 16,2 14 8 27 14 WNW 20 9 0,0
26.09.2020 09:00:00 5,1 2,3 4,3 14,0 16,2 6 3 15 8 WNW 20 35 0,0
26.09.2020 08:00:00 4,4 2,3 3,8 14,2 16,2 7 4 15 8 W 20 0 0,0
26.09.2020 07:00:00 4,2 1,7 3,9 14,2 16,2 8 4 20 11 W 20 0 0,0
26.09.2020 06:00:00 4,4 1,8 4,1 14,4 16,2 8 5 25 14 W 20 0 0,0
26.09.2020 05:00:00 4,4 2,1 3,8 14,5 16,2 11 6 29 16 W 20 0 0,0
26.09.2020 04:00:00 4,5 2,2 4,0 14,6 16,2 17 9 36 20 WNW 20 0 0,0
26.09.2020 03:00:00 4,7 2,2 4,4 14,7 16,2 19 10 36 19 WNW 20 0 0,0
26.09.2020 02:00:00 4,9 2,6 4,7 14,8 16,2 14 8 29 16 W 20 0 0,0
26.09.2020 01:00:00 5,0 2,5 4,7 15,0 16,2 22 12 45 24 WNW 20 0 0,0
26.09.2020 00:00:00 5,1 2,8 3,8 15,1 16,2 17 9 33 18 WNW 20 0 0,0
25.09.2020 23:00:00 3,9 2,4 3,6 15,2 16,2 20 11 48 26 NNW 14 0 1,4
25.09.2020 22:00:00 4,8 2,8 3,9 15,3 16,2 8 5 48 26 NNW 20 0 0,0
25.09.2020 21:00:00 4,4 2,1 3,7 15,3 16,2 22 12 73 40 NW 20 0 1,2
25.09.2020 20:00:00 6,5 3,3 5,3 15,3 16,2 21 12 48 26 WNW 20 0 0,2
25.09.2020 19:00:00 6,3 3,8 5,3 15,3 16,2 26 14 68 37 WNW 20 0 1,6
25.09.2020 18:00:00 7,7 3,7 6,6 15,3 16,2 20 11 48 26 WNW 19 16 0,0
25.09.2020 17:00:00 7,8 3,3 6,6 15,3 16,2 31 17 65 35 WNW 13 21 0,2
25.09.2020 16:00:00 10,6 3,6 9,3 15,4 16,2 32 17 61 33 WNW 20 36 0,0
25.09.2020 15:00:00 9,4 2,7 8,5 15,4 16,2 26 14 61 33 WNW 20 10 0,0
25.09.2020 14:00:00 8,8 2,1 10,0 15,5 16,2 27 14 61 33 WNW 20 7 0,0
25.09.2020 13:00:00 8,8 2,6 9,2 15,5 16,2 25 14 51 28 WNW 20 4 0,0
25.09.2020 12:00:00 - - - - - - - - - - - - -
25.09.2020 11:00:00 7,8 3,1 8,6 15,8 16,2 17 9 46 25 WNW 20 27 0,0
25.09.2020 10:00:00 8,5 2,9 10,4 15,9 16,2 22 12 44 24 W 20 60 0,0
25.09.2020 09:00:00 7,1 3,0 4,5 16,1 16,2 3 2 23 12 W 20 37 0,0
25.09.2020 08:00:00 5,4 2,0 4,5 16,2 16,2 8 4 33 18 WSW 20 0 0,0
25.09.2020 07:00:00 5,6 2,4 5,0 16,3 16,2 20 11 35 19 WNW 20 0 0,0
25.09.2020 06:00:00 6,1 2,9 5,5 16,4 16,2 17 9 40 22 W 20 0 0,8
25.09.2020 05:00:00 7,5 3,5 6,8 16,5 16,2 16 9 39 21 W 20 0 0,0
25.09.2020 04:00:00 7,5 3,5 6,5 16,6 16,2 18 10 50 27 WSW 20 0 0,2
25.09.2020 03:00:00 8,4 4,0 6,9 16,7 16,2 21 11 61 33 W 20 0 0,2
25.09.2020 02:00:00 8,9 4,9 8,1 16,8 16,2 30 16 53 29 WNW 20 0 0,0
25.09.2020 01:00:00 12,4 6,0 12,2 16,9 16,2 26 14 60 32 W 20 0 0,0
25.09.2020 00:00:00 12,3 6,6 11,9 16,9 16,2 13 7 53 28 W 20 0 0,0

tt = temperature
td = dewpoint
tt 5cm = temperature 5cm
tt -20cm = temperature -20cm
tt -100cm = temperature -100cm
ff = wind speed
fx = gusts
dd = wind direction
vv = visibility
sd = sunshine duration
rr = precipitation

Next stations